Terminal Aerodrome Forecast
Issued by NWS Paducah, KY

Home | Current Version | Previous Version | Text Only | Print | Product List | Glossary On
Versions: 1 2 3 4 5 6 7 8 9 10 11 12 13 14 15 16 17 18
776
FTUS43 KPAH 162129 AAB
TAFPAH
TAF AMD
KPAH 162129Z 1621/1718 33010KT P6SM BKN035
     FM170100 33006KT 4SM -SN BKN027 OVC045
     FM170800 31006KT P6SM FEW030
     FM171600 30005KT P6SM BKN018=

USA.gov is the U.S. government's official web portal to all federal, state and local government web resources and services.